La Monte, Missouri
Current Conditions -  °F | °C
As of 12:58 AM on Friday 19 Dec 2014 (Local Time) from KSZL Reporting Station
Moderate Fog Moderate Fog  
Wind Chill: 33°   Ceiling: 200
Heat Index: 33°   Visibility: 0.5mi
Dew Point: 32°   Wind: 3mph
Humidity: 97%   Direction: 80°E
Pressure: 30.25"   Gusts: NA
Location:  38.77°N, 93.43°W
Report Text: KSZL 190658Z 08003KT 1/2SM R01/1600FT FG VV002 00/00 A3025 RMK AO2A SLP255 T00041000 $
Loading
Personal Weather Stations






























Interactive Weather Map New forecast layout! Learn more

10-Day Weather Forecast

Advertisements
Track Severe Weather on mobile